Terminal Aerodrome Forecast
Issued by NWS Jackson, MS

Home | Current Version | Previous Version | Text Only | Print | Product List | Glossary On
Versions: 1 2 3 4 5 6 7 8 9 10 11 12 13 14
747
FTUS44 KJAN 290540
TAFJAN
TAF
KJAN 290540Z 2906/3006 31009KT 5SM -TSRA BKN015CB OVC050
     FM290700 30006KT 6SM -RA BR SCT015 BKN050
     FM291300 17005KT P6SM OVC100
     FM291700 24006KT P6SM -TSRA BKN030CB BKN045
     FM300100 16003KT P6SM OVC050=

USA.gov is the U.S. government's official web portal to all federal, state and local government web resources and services.